Etusivu
METAR-TAF:

METAR-TAF

Lentoasemat :

Hannoverin lentoasema

Hannover, Saksa

Leveyspiiri: 52-28N, Pituuspiiri: 009-41E, korkeus merenpinnasta: 56 m

Tämänhetkinen sää

Tämä raportti tehtiin 30 minuuttia sitten, kello 04.20 UTC
Tuuli 4 kn idästä
Lämpötila -1°C
Kosteus 80%
Ilmanpaine 1038 hPa
Näkyvyys 10 km tai enemmän
ei pilviä alle 1500 m:ssä eikä cumulonimbus-pilviä

METAR: EDDV 240420Z 08004KT CAVOK M01/M04 Q1038 NOSIG

Aika: 05:50 (04:50 UTC)

Sääennuste

Tämä raportti tehtiin 5 tuntia ja 50 minuuttia sitten, kello 23.00 UTC
Ennuste voimassa 24. päivästä klo 00 UTC - 24. päivään klo 24 UTC
Tuuli 5 kn idästä/kaakosta
Näkyvyys 10 km tai enemmän
ei pilviä alle 1500 m:ssä eikä cumulonimbus-pilviä
Tulossa
24. päivästä klo 00 UTC - 24. päivään klo 03 UTC
Tuuli 4 kn etelästä

TAF: EDDV 232300Z 2400/2424 12005KT CAVOK BECMG 2400/2403 18004KT

Säähavainnot ja -ennusteet yli 4000 lentoasemalta (METAR- ja TAF-raportit).

Käytössä olevat sääasemat on merkitty karttaan keltaisilla ja punaisilla pisteillä.

Aseta hiiri pisteen päälle nähdäksesi sääaseman nimen.

Klikkaa sitten nähdäksesi säähavainnot ja -ennusteet.

Kartan vaihtaminen: klikkaa mustalla rastilla varustettuja vihreitä pisteitä, niin voit zoomata sisään; viivalla varustettua vihreää pistettä, niin voit zoomata ulos tai vihreitä nuolia, niin pääset viereisille kartoille.


METAR-TAF: